Aviation Digital Data Service (ADDS)

Output produced by METARs form (0721 UTC 20 October 2018)
found at http://www.aviationweather.gov/metar/data/
 
RJSK 200700Z 30009KT 9999 FEW030 17/07 Q1018
TAF RJSK 200505Z 2006/2112 30006KT 9999 FEW030 
     BECMG 2010/2012 14004KT 
     TEMPO 2018/2100 1500 BR FEW001 BKN003 
     BECMG 2100/2103 30008KT 
     BECMG 2109/2112 14004KT
       
RJKA 200700Z 36011KT 9999 FEW035 SCT040 24/15 Q1018
RJSA 200700Z 27007KT 9999 FEW030 14/05 Q1018
TAF RJSA 200505Z 2006/2112 24006KT 9999 FEW030
       
RJEC 200700Z 30004KT 9999 FEW030 SCT050 12/05 Q1017
TAF RJEC 200508Z 2006/2112 31005KT 9999 FEW015 BKN030 
     BECMG 2011/2013 17005KT 
     BECMG 2100/2103 31005KT
       
RJFF 200700Z 01012KT 9999 FEW035 SCT/// 20/09 Q1021 NOSIG RMK 1CU035 A3016
TAF RJFF 200507Z 2006/2112 01011KT 9999 FEW035 
     BECMG 2011/2013 14003KT 
     BECMG 2100/2103 04006KT
       
RJSF 200700Z 02007KT 9999 FEW020 SCT040 BKN080 15/11 Q1018
TAF RJSF 200505Z 2006/2112 36008KT 8000 -SHRA FEW010 BKN020 BKN030 
     TEMPO 2006/2009 3000 TSRA BR FEW005 BKN008 BKN020 FEW020CB 
     TEMPO 2009/2012 4000 -SHRA BR FEW005 BKN008 BKN020 
     TEMPO 2012/2100 1500 BR FEW001 BKN003
       
ROTM 200656Z 36009KT 9999 SCT030 25/17 A3007 RMK SLP167 STNPR29760 T02500167
TAF ROTM 2003/2103 36008G15KT SCT060 QNH3009INS 
     BECMG 2014/2016 03010KT FEW030 SCT050 QNH3008INS T25/2003Z T18/2116Z
       
RJCH 200700Z 26009KT 9999 FEW020 SCT040 16/08 Q1018
TAF RJCH 200511Z 2006/2112 24010KT 9999 FEW020 
     BECMG 2008/2010 36006KT 
     BECMG 2100/2103 28010KT
       
RJSI 200700Z 34004KT 9999 FEW030 SCT040 17/10 Q1017
RJOA 200700Z 34010KT 9999 FEW045 18/04 Q1021
TAF RJOA 200505Z 2006/2112 01008KT 9999 FEW030
       
RJAH 200700Z 06011KT 9999 FEW020 SCT120 19/11 Q1015
TAF RJAH 200508Z 2006/2112 06010KT 8000 -SHRA FEW010 BKN020 
     BECMG 2008/2010 36010KT 
     TEMPO 2008/2011 3000 TSRA BR FEW005 BKN008 FEW015CB 
     BECMG 2103/2106 06008KT
       
ROIG 200700Z 05014KT 9999 FEW030 25/18 Q1017
TAF ROIG 200511Z 2006/2112 04010KT 9999 FEW025 SCT045
       
RJOI 200655Z 01014KT 9999 SCT030 23/07 A3014 RMK SLP205 T02280067
TAF RJOI 2005/2105 07006KT 9999 FEW030 FEW200 QNH3012INS 
     FM201000 03010G20KT 9999 FEW030 SCT250 QNH3015INS T23/2005Z T12/2021Z
       
RJOW 200700Z 03006KT 340V090 9999 FEW035 18/09 Q1022
RJAW 200700Z 32008KT 9999 FEW015 30/24 Q1010 RMK 2CU015 A2985
RJOC 200700Z 04011KT 9999 FEW035 SCT045 19/07 Q1022
TAF RJOC 200505Z 2006/2112 07006KT 9999 FEW035 SCT045 
     BECMG 2009/2011 17006KT 
     BECMG 2100/2103 06010KT 
     BECMG 2109/2112 17005KT
       
RODN 200656Z 04011KT 10SM CLR 25/15 A3005 RMK AO2A SLP182 T02490152 $
TAF RODN 200000Z 2000/2106 05009KT 9999 SCT040 QNH3004INS 
     TEMPO 2002/2008 04012G18KT TX25/2002Z TN16/2019Z
       
RJFK 200700Z 23004KT 200V270 9999 FEW030 BKN/// 21/10 Q1019 RMK 1CU030 A3010
TAF RJFK 200513Z 2006/2112 20007KT 9999 FEW030 
     BECMG 2006/2008 35005KT 
     BECMG 2100/2103 16006KT
       
RJBB 200700Z 01018KT 9999 FEW035 BKN045 20/08 Q1019 NOSIG
TAF RJBB 200509Z 2006/2112 02016KT 9999 FEW030
       
RJTK 200632Z 03011KT 9999 FEW030 SCT120 22/10 Q1015 RMK 2CU030 4AC120 A2998
RJFR 200700Z 36013KT 9999 FEW040 20/08 Q1021
TAF RJFR 200506Z 2006/2112 01012KT 9999 FEW030 
     BECMG 2021/2100 07008KT 
     BECMG 2100/2103 10007KT 
     BECMG 2106/2109 05003KT
       
RJOK 200700Z 33016KT 9999 FEW035 21/06 Q1018
TAF RJOK 200505Z 2006/2112 35008KT 9999 FEW035 
     BECMG 2100/2103 18008KT 
     BECMG 2109/2112 36007KT
       
RJNK 200700Z 35012KT 9999 FEW030 BKN040 18/09 Q1021
TAF RJNK 200505Z 2006/2112 02012KT 9999 FEW030 SCT040 
     BECMG 2011/2013 14004KT 
     BECMG 2100/2103 36010KT
       
RJFT 200700Z 36008KT 320V030 9999 FEW045 21/04 Q1020
TAF RJFT 200506Z 2006/2112 02010KT 9999 FEW040 
     BECMG 2103/2106 24006KT 
     BECMG 2109/2112 08007KT
       
RJCK 200700Z 19007KT 9999 FEW040 SCT090 12/07 Q1017
TAF RJCK 200510Z 2006/2112 19010KT 9999 FEW030 
     BECMG 2008/2010 34005KT 
     BECMG 2021/2100 20009KT 
     BECMG 2106/2109 02006KT
       
RJAF 200700Z 34008KT 9999 VCSH FEW009 SCT030 BKN090 12/09 Q1019
RJOM 200700Z 36007KT 9999 FEW030 21/05 Q1020
TAF RJOM 200507Z 2006/2112 36010KT 9999 FEW030 
     BECMG 2106/2109 12006KT
       
RJCM 200700Z 01009KT 9999 FEW050 SCT070 BKN090 13/07 Q1017
TAF RJCM 200513Z 2006/2112 03005KT 9999 FEW020 BKN040 
     BECMG 2008/2010 21005KT 
     BECMG 2100/2103 01005KT
       
RJOH 200700Z 02007KT 9999 FEW040 SCT045 18/04 Q1022
TAF RJOH 200506Z 2006/2112 03009KT 9999 FEW035 SCT045 
     BECMG 2012/2014 18005KT 
     BECMG 2100/2103 06010KT 
     BECMG 2109/2112 18005KT
       
ROMY 200700Z 02010KT 9999 FEW036 24/15 Q1017
RJFM 200700Z 05008KT 9999 FEW030 23/09 Q1019
TAF RJFM 200510Z 2006/2112 03011KT 9999 FEW030 
     BECMG 2010/2012 30006KT 
     BECMG 2021/2100 04010KT 
     BECMG 2109/2112 31004KT
       
RJEB 200700Z 35004KT 330V030 9999 FEW020 SCT040 12/04 Q1017
RJFU 200700Z 35011KT 9999 FEW050 BKN/// 21/10 Q1020
TAF RJFU 200509Z 2006/2112 01012KT 9999 FEW040 
     BECMG 2018/2021 13005KT 
     BECMG 2100/2103 32005KT
       
ROAH 200700Z 36014KT 9999 FEW030 25/16 Q1017 RMK 1CU030 A3005
TAF ROAH 200507Z 2006/2112 04010KT 9999 FEW030
       
RJCN 200700Z 15006KT 9999 FEW025 SCT060 BKN080 13/07 Q1016
RJBD 200700Z 34013KT 9999 FEW035 20/09 Q1018
RJCC 200700Z VRB02KT 9999 FEW030 SCT080 15/05 Q1018 RMK 1CU030 3AC080 A3006
TAF RJCC 200505Z 2006/2112 18006KT 9999 FEW015 BKN030 
     BECMG 2007/2009 33004KT
       
RJAA 200700Z 03010KT 360V060 9999 FEW030 19/13 Q1015 NOSIG RMK 1CU030 A3000
TAF RJAA 200505Z 2006/2112 35012KT 9999 FEW020 BKN040 
     TEMPO 2008/2011 -TSRA FEW015 FEW020CB BKN030
       
RJSN 200700Z 33014KT 9999 FEW015 SCT020 FEW025CB BKN030 17/11 Q1019
TAF RJSN 200512Z 2006/2112 35012KT 9999 FEW015 BKN030 
     BECMG 2013/2015 18004KT 
     BECMG 2100/2103 25008KT 
     BECMG 2109/2112 16004KT
       
RJCB 200700Z 18006KT 9999 FEW050 13/04 Q1016
TAF RJCB 200506Z 2006/2112 15005KT 9999 FEW008 SCT015 
     BECMG 2008/2010 32005KT 
     TEMPO 2012/2018 3000 BR FEW003 BKN006 
     TEMPO 2018/2100 0700 FG VV001
       
RJSR 200700Z 27006KT 9999 FEW040 15/10 Q1018
RJFO 200700Z 30007KT 9999 FEW030 SCT/// 21/11 Q1020
TAF RJFO 200506Z 2006/2112 36007KT 9999 FEW030
       
RJOB 200700Z 34008KT 270V030 9999 FEW030 SCT050 18/07 Q1020
TAF RJOB 200507Z 2006/2112 36008KT 9999 FEW030 SCT040
       
RJOO 200700Z 34014KT 9999 FEW020 SCT050 20/05 Q1019 RMK 1CU020 3SC050 A3012
TAF RJOO 200507Z 2006/2112 35012KT 9999 FEW025
       
RJTO 200700Z 05014KT 9999 FEW030 SCT090 21/12 Q1015
RJFS 200700Z 36010KT 9999 FEW040 SCT/// 21/11 Q1021
TAF RJFS 200508Z 2006/2112 03010KT 9999 FEW035
       
RJSS 200700Z 18003KT 9999 FEW020 FEW025CB SCT050 BKN080 17/13 Q1017
TAF AMD RJSS 200634Z 2006/2112 12007KT 9999 FEW020 SCT040 
     TEMPO 2006/2009 4000 TSRA BR FEW005 BKN008 BKN020 FEW020CB 
     BECMG 2009/2011 34005KT 
     BECMG 2100/2103 12006KT 
     BECMG 2109/2112 34004KT
       
RORS 200700Z 03014KT 9999 FEW036 25/16 Q1017
RJNY 200652Z 34006KT 9999 SHRA FEW015 BKN020 17/13 Q1015 RMK 1CU015 6CU020 A2998
RJSY 200700Z 33006KT 280V010 9999 FEW020 SCT030 17/11 Q1018
RJBT 200700Z 36008KT 330V050 9999 FEW030 SCT040 16/07 Q1021
RJOT 200700Z 35007KT 290V050 9999 FEW030 19/07 Q1020
TAF RJOT 200508Z 2006/2112 03006KT 9999 FEW030 
     BECMG 2010/2012 26005KT 
     BECMG 2100/2103 06008KT
       
RJFG 200700Z 05006KT 340V110 9999 FEW030 20/10 Q1019
RJOS 200425Z 35014KT 9999 FEW020 SCT040 20/10 Q1019 RMK 1CU020 4CU040 A3011 PEAK GUST 21KT
RJTT 200700Z 04011KT 9999 FEW030 SCT070 21/11 Q1015 NOSIG RMK 1CU030 3AC070 A2998
TAF RJTT 200506Z 2006/2112 36015KT 9999 FEW025 BKN040 
     TEMPO 2009/2011 3000 TSRA FEW008 BKN012 SCT020CB 
     TEMPO 2011/2012 -TSRA FEW008 BKN015 FEW025CB 
     BECMG 2106/2109 08013KT
       
RJOR 200700Z 36010KT 9999 FEW035 17/07 Q1022
RJNT 200700Z 36005KT 9999 FEW020 SCT050 BKN/// 17/09 Q1021
TAF RJNT 200505Z 2006/2112 36006KT 9999 FEW030 
     BECMG 2008/2010 20004KT 
     BECMG 2100/2103 36010KT 
     BECMG 2109/2112 20004KT
       
RJDT 200700Z 03007KT 350V060 9999 FEW030 BKN/// 18/09 Q1023
RJCW 200700Z 24005KT 9999 FEW030 12/04 Q1016
RJSC 200700Z 01011KT 9999 VCSH FEW010 SCT040 BKN/// 18/11 Q1017
RJDC 200700Z 01010KT 330V040 9999 FEW040 20/10 Q1021
RJOY 200700Z 35013KT 9999 FEW035 20/05 Q1019
RJTY 200656Z AUTO 01009KT 10SM FEW049 SCT060 BKN075 19/10 A3004 RMK AO2 SLP175 T01930103 FZRANO $
TAF RJTY 200500Z 2005/2111 08009KT 9999 FEW040 SCT110 QNH3000INS 
     TEMPO 2006/2010 01012KT 9000 -SHRA VCTS BKN040CB TX21/2005Z TN12/2021Z
       
ROYN 200700Z AUTO 04015KT 9999 FEW028 OVC031 24/19 Q1017
RORY 200700Z AUTO 02013KT 9999 NCD 24/15 Q1018